Clemson, SC (29634)

2:53 PM EDT on July 27, 2016 (GMT -0400)
CU Ent Dept | | Change Station

Elev 842 ft 34.68 °N, 82.83 °W | Updated 4 seconds ago

Partly Cloudy
Partly Cloudy
96.0 °F
Feels Like 104 °F
N
2.0
Wind Variable Wind from SSE
Gusts 6.0 mph

Today
High -- | Low -- °F
--% Chance of Precip.
Yesterday
High -- | Low -- °F
Precip. -- in
Pressure 29.99 in
Visibility 10.0 miles
Clouds Few 8000 ft
Heat Index 104 °F
Dew Point 71 °F
Humidity 45%
Rainfall 0.00 in
Snow Depth Not available.
6:38 AM 8:37 PM
Last Quarter, 40% visible
METAR KCEU 271754Z AUTO VRB04KT 10SM FEW080 36/20 A3003 RMK AO2 SLP156 T03560200 10367 20256 58009
Pressure 29.99 in
Visibility 10.0 miles
Clouds Few 8000 ft
Heat Index 104 °F
Dew Point 71 °F
Humidity 45%
Rainfall 0.00 in
Snow Depth Not available.
6:38 AM 8:37 PM
Last Quarter, 40% visible
METAR KCEU 271754Z AUTO VRB04KT 10SM FEW080 36/20 A3003 RMK AO2 SLP156 T03560200 10367 20256 58009

10-Day Weather Forecast

Almanac

Astronomy

Jul. 27, 2016 Rise Set
Actual Time
Civil Twilight
Nautical Twilight
Astronomical Twilight
Moon
Length of Visible Light
Length of Day
Tomorrow will be .
, % of the Moon is Illuminated

Today's Extremes

State Highs State Lows

Community

WunderPhotos

Upload Photos

1,927,897 photos uploaded!

WunderBlog® & News

Nearby

Air Quality

  Air Quality AQ Index Pollutant
Not available.

Snow Depth

Station Depth Elevation

Earthquake Activity

City Distance Mag. Time & Date
Minimum magnitude displayed is 2.5.

Coastal Water Temperatures

Place Temperature

Stations

Nearby Weather Stations

Station Location Temp. Windchill Dew Point Humidity Wind Precip. Elev Updated Type
                   

Watches & Warnings

There are currently no watches in effect.